Time;durP1;ratioP1;P1;durP2;ratioP2;P2;SDS_P1;SDS_P2;PMS_P1;PMS_P2;Temp;Humidity;BMP_temperature;BMP_pressure;BME280_temperature;BME280_humidity;BME280_pressure;Samples;Min_cycle;Max_cycle;Signal;HPM_P1;HPM_P2
2021/04/28 00:01:44;;;;;;;10.13;6.37;;;;;;;6.36;45.46;94471.31;4992262;28;20203;-73
2021/04/28 00:04:09;;;;;;;9.93;5.83;;;;;;;6.43;45.56;94469.75;4991237;28;20182;-73
2021/04/28 00:06:35;;;;;;;8.97;6.00;;;;;;;6.50;45.20;94469.97;4991762;28;20199;-74
2021/04/28 00:09:02;;;;;;;7.63;6.13;;;;;;;6.47;45.49;94468.50;4992136;28;20207;-73
2021/04/28 00:11:28;;;;;;;13.30;5.80;;;;;;;6.51;45.06;94471.56;4992194;28;20180;-73
2021/04/28 00:13:53;;;;;;;12.23;6.97;;;;;;;6.48;45.57;94466.72;4992001;28;20713;-73
2021/04/28 00:16:20;;;;;;;9.10;6.47;;;;;;;6.51;45.42;94464.66;4990519;28;20284;-73
2021/04/28 00:18:49;;;;;;;9.63;6.23;;;;;;;6.53;45.12;94462.72;4990570;28;20171;-73
2021/04/28 00:21:15;;;;;;;10.20;6.10;;;;;;;6.54;45.23;94471.31;4990888;28;20176;-74
2021/04/28 00:23:41;;;;;;;11.47;6.57;;;;;;;6.60;44.74;94464.72;4992132;28;20188;-74
2021/04/28 00:26:07;;;;;;;7.60;6.27;;;;;;;6.56;45.10;94455.66;4991656;28;20200;-74
2021/04/28 00:28:32;;;;;;;8.70;6.27;;;;;;;6.61;44.80;94459.41;4991739;28;20191;-73
2021/04/28 00:30:57;;;;;;;7.63;6.13;;;;;;;6.56;44.82;94453.09;4990813;28;20187;-73
2021/04/28 00:33:23;;;;;;;9.57;6.43;;;;;;;6.62;44.87;94453.28;4991713;28;20763;-73
2021/04/28 00:35:48;;;;;;;9.00;6.60;;;;;;;6.56;44.52;94455.66;5006808;28;20205;-74
2021/04/28 00:38:13;;;;;;;8.83;6.67;;;;;;;6.59;44.47;94450.19;4991887;28;20188;-74
2021/04/28 00:40:41;;;;;;;12.23;6.37;;;;;;;6.58;44.22;94451.16;4991804;28;20180;-74
2021/04/28 00:43:07;;;;;;;8.33;6.63;;;;;;;6.59;44.59;94440.69;4991811;28;20214;-73
2021/04/28 00:45:34;;;;;;;11.07;6.60;;;;;;;6.53;44.53;94442.09;4990336;28;20344;-74
2021/04/28 00:48:00;;;;;;;12.33;7.03;;;;;;;6.60;44.21;94444.06;4992555;28;20191;-74
2021/04/28 00:50:35;;;;;;;8.90;6.30;;;;;;;6.66;44.37;94441.72;4961974;28;20218;-73
2021/04/28 00:53:01;;;;;;;9.57;6.57;;;;;;;6.63;44.07;94439.44;5003751;28;20190;-74
2021/04/28 00:55:27;;;;;;;11.90;7.37;;;;;;;6.59;44.25;94440.69;5034589;28;20198;-73
2021/04/28 00:57:52;;;;;;;9.83;5.97;;;;;;;6.58;44.47;94435.69;5017182;28;20174;-73
2021/04/28 01:00:18;;;;;;;8.13;6.03;;;;;;;6.66;44.12;94430.59;5034664;28;20547;-74
2021/04/28 01:02:44;;;;;;;11.53;6.23;;;;;;;6.52;44.24;94426.78;5034988;28;20178;-72
2021/04/28 01:05:11;;;;;;;8.67;6.20;;;;;;;6.51;44.00;94428.53;5034474;28;20190;-74
2021/04/28 01:07:36;;;;;;;9.17;5.67;;;;;;;6.48;44.21;94422.88;5033353;28;20209;-73
2021/04/28 01:10:05;;;;;;;9.57;6.43;;;;;;;6.41;44.49;94421.84;5034573;28;20206;-73
2021/04/28 01:12:30;;;;;;;8.60;6.57;;;;;;;6.39;44.25;94427.16;5016910;28;20221;-74
2021/04/28 01:14:56;;;;;;;8.70;6.13;;;;;;;6.43;44.40;94423.31;5034035;28;20253;-74
2021/04/28 01:17:21;;;;;;;8.80;7.37;;;;;;;6.41;44.06;94427.00;5016853;28;20183;-74
2021/04/28 01:19:46;;;;;;;11.80;6.93;;;;;;;6.42;43.96;94423.47;5034097;28;20234;-73
2021/04/28 01:22:12;;;;;;;12.67;6.93;;;;;;;6.47;44.02;94418.69;5034389;28;20183;-74
2021/04/28 01:24:37;;;;;;;11.30;6.97;;;;;;;6.46;44.09;94419.66;5034185;28;20186;-74
2021/04/28 01:27:08;;;;;;;8.60;6.77;;;;;;;6.44;43.94;94424.94;5034105;28;20240;-74
2021/04/28 01:29:34;;;;;;;7.90;6.17;;;;;;;6.37;44.18;94426.50;5016404;28;20706;-72
2021/04/28 01:31:59;;;;;;;8.93;6.47;;;;;;;6.59;43.96;94425.22;5016515;28;20281;-74
2021/04/28 01:34:26;;;;;;;9.00;6.60;;;;;;;6.55;44.12;94420.53;5016276;28;20552;-74
2021/04/28 01:36:52;;;;;;;11.33;7.20;;;;;;;6.45;44.45;94426.59;5016430;28;20202;-73
2021/04/28 01:39:17;;;;;;;8.83;6.07;;;;;;;6.43;44.86;94420.75;5034090;28;20171;-72
2021/04/28 01:41:46;;;;;;;9.80;6.50;;;;;;;6.32;44.85;94413.25;5016158;28;20182;-73
2021/04/28 01:44:13;;;;;;;8.33;6.03;;;;;;;6.26;44.97;94413.84;5034170;28;20190;-72
2021/04/28 01:46:39;;;;;;;11.53;6.80;;;;;;;6.26;44.89;94408.69;5033886;28;20230;-73
2021/04/28 01:49:05;;;;;;;9.57;6.60;;;;;;;6.32;45.01;94408.09;5033833;28;20229;-73
2021/04/28 01:51:32;;;;;;;8.43;6.53;;;;;;;6.28;44.78;94418.88;5033865;28;20687;-73
2021/04/28 01:53:59;;;;;;;10.53;6.90;;;;;;;6.25;44.93;94410.44;5032671;28;20701;-73
2021/04/28 01:56:24;;;;;;;7.73;6.63;;;;;;;6.36;44.48;94409.44;5015731;28;20202;-73
2021/04/28 01:58:52;;;;;;;9.17;6.67;;;;;;;6.42;44.83;94406.22;5015550;28;20182;-73
2021/04/28 02:01:18;;;;;;;8.77;6.67;;;;;;;6.49;44.20;94409.03;5015638;28;20202;-73
2021/04/28 02:03:44;;;;;;;9.07;7.03;;;;;;;6.49;43.79;94409.84;5033647;28;20210;-73
2021/04/28 02:06:09;;;;;;;9.27;7.17;;;;;;;6.46;44.18;94407.56;5033326;28;20252;-73
2021/04/28 02:08:34;;;;;;;10.07;6.70;;;;;;;6.55;44.09;94408.44;5033441;28;20193;-73
2021/04/28 02:11:01;;;;;;;11.50;6.73;;;;;;;6.53;43.70;94405.97;5033449;28;20171;-73
2021/04/28 02:13:26;;;;;;;10.33;6.87;;;;;;;6.65;43.33;94403.97;5032190;28;20261;-73
2021/04/28 02:15:53;;;;;;;11.90;7.13;;;;;;;6.63;43.56;94397.38;5033089;28;20236;-72
2021/04/28 02:18:18;;;;;;;13.10;7.80;;;;;;;6.60;43.44;94403.63;5015709;28;20175;-73
2021/04/28 02:20:45;;;;;;;11.90;7.03;;;;;;;6.55;43.55;94398.13;5032820;28;20232;-73
2021/04/28 02:23:11;;;;;;;10.17;6.87;;;;;;;6.48;43.94;94392.75;5015481;28;20545;-72
2021/04/28 02:25:36;;;;;;;9.03;6.33;;;;;;;6.49;43.81;94394.34;5032946;28;20199;-72
2021/04/28 02:28:02;;;;;;;9.93;6.17;;;;;;;6.48;43.53;94392.75;5033113;28;20196;-73
2021/04/28 02:30:31;;;;;;;10.03;7.03;;;;;;;6.56;43.39;94389.41;5015271;28;20242;-73
2021/04/28 02:32:57;;;;;;;10.60;6.80;;;;;;;6.50;43.32;94390.00;5033055;28;20190;-71
2021/04/28 02:35:23;;;;;;;8.87;6.13;;;;;;;6.40;44.20;94386.72;5031416;28;20202;-73
2021/04/28 02:37:55;;;;;;;10.73;7.30;;;;;;;6.37;44.31;94384.44;5015243;28;20189;-73
2021/04/28 02:40:21;;;;;;;7.27;6.20;;;;;;;6.37;44.17;94382.69;5015267;28;20174;-73
2021/04/28 02:42:47;;;;;;;11.80;6.47;;;;;;;6.44;43.43;94380.28;5032918;28;20539;-73
2021/04/28 02:45:19;;;;;;;9.50;6.03;;;;;;;6.41;43.61;94376.25;5014797;28;20198;-72
2021/04/28 02:47:46;;;;;;;8.27;6.03;;;;;;;6.40;43.34;94379.78;5032675;28;20591;-73
2021/04/28 02:50:16;;;;;;;8.03;6.90;;;;;;;6.49;43.11;94373.72;5015009;28;20337;-72
2021/04/28 02:52:43;;;;;;;10.03;6.13;;;;;;;6.38;43.27;94381.72;5032918;28;20201;-72
2021/04/28 02:55:09;;;;;;;12.53;6.37;;;;;;;6.39;43.71;94377.38;5031140;28;20653;-73
2021/04/28 02:57:35;;;;;;;11.43;6.40;;;;;;;6.43;43.58;94374.31;5014828;28;20218;-73
2021/04/28 03:00:04;;;;;;;9.77;6.57;;;;;;;6.55;43.31;94374.09;5014928;28;20812;-73
2021/04/28 03:02:29;;;;;;;8.03;6.70;;;;;;;6.45;43.49;94371.63;5032403;28;20189;-73
2021/04/28 03:04:55;;;;;;;12.93;6.30;;;;;;;6.54;43.90;94373.28;5014692;28;20186;-73
2021/04/28 03:07:20;;;;;;;10.87;6.97;;;;;;;6.53;44.10;94369.06;5032427;28;20206;-72
2021/04/28 03:09:46;;;;;;;11.77;7.07;;;;;;;6.48;44.48;94369.53;5014633;28;20245;-74
2021/04/28 03:12:12;;;;;;;8.70;6.77;;;;;;;6.44;44.17;94368.19;5031909;28;20266;-72
2021/04/28 03:14:38;;;;;;;11.50;6.97;;;;;;;6.58;44.06;94371.19;5032064;28;20649;-73
2021/04/28 03:17:03;;;;;;;11.20;6.63;;;;;;;6.60;44.45;94369.28;5032088;28;20221;-72
2021/04/28 03:19:30;;;;;;;8.60;7.00;;;;;;;6.56;44.57;94368.78;5031803;28;20174;-75
2021/04/28 03:21:55;;;;;;;10.20;7.23;;;;;;;6.64;44.39;94362.88;5014471;28;20253;-74
2021/04/28 03:24:21;;;;;;;8.63;6.83;;;;;;;6.53;44.95;94364.72;5014328;28;20205;-74
2021/04/28 03:26:50;;;;;;;10.37;6.73;;;;;;;6.49;44.93;94366.00;5030803;28;20234;-74
2021/04/28 03:29:16;;;;;;;11.03;7.20;;;;;;;6.37;45.47;94363.81;5014104;28;20207;-74
2021/04/28 03:31:41;;;;;;;9.57;6.90;;;;;;;6.36;45.75;94363.00;5032172;28;20189;-74
2021/04/28 03:34:06;;;;;;;10.23;6.63;;;;;;;6.26;45.83;94362.28;5032041;28;20178;-74
2021/04/28 03:36:32;;;;;;;10.37;7.70;;;;;;;6.24;45.91;94364.19;5031723;28;20571;-73
2021/04/28 03:38:57;;;;;;;16.83;7.77;;;;;;;6.22;46.06;94366.13;5014366;28;20181;-74
2021/04/28 03:41:24;;;;;;;10.23;6.97;;;;;;;6.20;45.83;94358.53;5031953;28;20210;-74
2021/04/28 03:43:50;;;;;;;13.97;7.43;;;;;;;6.21;45.77;94367.09;5031669;28;20185;-74
2021/04/28 03:46:16;;;;;;;9.07;7.03;;;;;;;6.16;46.35;94364.13;5013800;28;20202;-74
2021/04/28 03:48:42;;;;;;;10.87;7.40;;;;;;;6.12;46.55;94363.63;5031580;28;20194;-71
2021/04/28 03:51:07;;;;;;;10.77;7.20;;;;;;;6.07;46.93;94365.03;5031635;28;20630;-73
2021/04/28 03:53:32;;;;;;;12.17;7.60;;;;;;;6.03;46.91;94372.25;5031603;28;20178;-71
2021/04/28 03:55:58;;;;;;;9.97;7.30;;;;;;;6.09;47.12;94366.50;5031370;28;20217;-73
2021/04/28 03:58:23;;;;;;;13.17;7.13;;;;;;;6.11;47.21;94361.22;5031414;28;20190;-72
2021/04/28 04:00:48;;;;;;;9.83;7.73;;;;;;;6.06;47.67;94368.56;5031525;28;20206;-72
2021/04/28 04:03:14;;;;;;;10.03;6.60;;;;;;;6.06;47.63;94368.56;5031503;28;20206;-74
2021/04/28 04:05:40;;;;;;;11.40;8.17;;;;;;;6.04;47.20;94365.34;5031169;28;20611;-75
2021/04/28 04:08:05;;;;;;;15.70;8.13;;;;;;;6.04;47.30;94367.91;5013811;28;20190;-72
2021/04/28 04:10:31;;;;;;;12.20;7.90;;;;;;;6.06;47.75;94371.94;5013750;28;20210;-72
2021/04/28 04:12:56;;;;;;;9.67;7.47;;;;;;;6.13;47.44;94372.19;5031377;28;20228;-73
2021/04/28 04:15:21;;;;;;;9.10;7.17;;;;;;;6.13;47.63;94377.34;5013471;28;20202;-73
2021/04/28 04:17:47;;;;;;;10.53;7.57;;;;;;;6.16;47.92;94369.28;5031504;28;20175;-72
2021/04/28 04:20:12;;;;;;;11.67;7.87;;;;;;;6.10;48.03;94372.47;5031017;28;20174;-72
2021/04/28 04:22:38;;;;;;;12.07;7.90;;;;;;;6.06;47.51;94371.16;5014183;28;20525;-73
2021/04/28 04:25:05;;;;;;;10.93;7.50;;;;;;;6.17;47.43;94373.47;5035031;28;20174;-72
2021/04/28 04:27:31;;;;;;;12.93;8.00;;;;;;;6.20;47.49;94374.00;5034586;28;20654;-73
2021/04/28 04:29:57;;;;;;;8.53;7.37;;;;;;;6.26;47.57;94372.59;5035444;28;20570;-73
2021/04/28 04:32:22;;;;;;;12.03;7.87;;;;;;;6.30;47.70;94371.34;5017749;28;20178;-72
2021/04/28 04:34:47;;;;;;;13.73;7.77;;;;;;;6.33;47.72;94377.97;5035031;28;20213;-74
2021/04/28 04:37:13;;;;;;;12.17;8.30;;;;;;;6.37;47.74;94376.72;5035194;28;20317;-72
2021/04/28 04:39:38;;;;;;;14.13;8.00;;;;;;;6.37;47.89;94374.94;5017460;28;21033;-72
2021/04/28 04:42:04;;;;;;;12.00;8.13;;;;;;;6.51;48.04;94382.13;5035148;28;20653;-73
2021/04/28 04:44:29;;;;;;;9.33;7.80;;;;;;;6.55;47.96;94381.84;5034815;28;20633;-74
2021/04/28 04:46:54;;;;;;;14.53;8.77;;;;;;;6.62;48.01;94383.63;5035004;28;20256;-72
2021/04/28 04:49:20;;;;;;;11.97;8.27;;;;;;;6.62;47.93;94383.63;5017319;28;20341;-74
2021/04/28 04:51:45;;;;;;;15.27;8.07;;;;;;;6.69;48.31;94387.22;5035042;28;20189;-74
2021/04/28 04:54:10;;;;;;;12.37;7.87;;;;;;;6.73;48.33;94380.00;5034827;28;20542;-71
2021/04/28 04:56:36;;;;;;;12.67;8.57;;;;;;;6.81;48.42;94380.88;5034693;28;20639;-73
2021/04/28 04:59:02;;;;;;;11.87;8.43;;;;;;;7.04;47.95;94377.75;5034883;28;20185;-73
2021/04/28 05:01:27;;;;;;;13.13;8.47;;;;;;;7.12;48.04;94382.13;5012197;28;20195;-73
2021/04/28 05:03:52;;;;;;;14.03;8.10;;;;;;;7.43;47.27;94387.59;5003723;28;20722;-73
2021/04/28 05:06:18;;;;;;;12.23;8.13;;;;;;;7.69;46.90;94392.69;4990423;28;20207;-73
2021/04/28 05:08:43;;;;;;;11.67;8.00;;;;;;;7.87;46.77;94391.56;5002787;28;20183;-73
2021/04/28 05:11:09;;;;;;;13.07;8.60;;;;;;;7.87;46.96;94395.94;4999632;28;20275;-72
2021/04/28 05:13:34;;;;;;;11.53;7.67;;;;;;;8.01;46.69;94397.06;5001853;28;20193;-73
2021/04/28 05:15:59;;;;;;;10.93;7.87;;;;;;;8.03;46.62;94395.94;4997731;28;20203;-73
2021/04/28 05:18:25;;;;;;;11.07;8.23;;;;;;;8.19;46.24;94401.13;4985336;28;20187;-71
2021/04/28 05:20:50;;;;;;;10.83;7.33;;;;;;;7.85;47.12;94398.66;4995354;28;20639;-72
2021/04/28 05:23:16;;;;;;;9.63;6.90;;;;;;;7.82;47.44;94399.00;5001228;28;20188;-73
2021/04/28 05:25:41;;;;;;;11.23;6.90;;;;;;;7.93;46.89;94405.63;4997138;28;20206;-73
2021/04/28 05:28:07;;;;;;;11.23;6.83;;;;;;;7.97;46.79;94401.78;4992446;28;20223;-73
2021/04/28 05:30:32;;;;;;;8.70;6.77;;;;;;;8.06;46.81;94403.41;4983733;28;20290;-73
2021/04/28 05:32:57;;;;;;;12.60;7.07;;;;;;;8.12;46.54;94407.91;4986105;28;20231;-73
2021/04/28 05:35:23;;;;;;;10.30;7.50;;;;;;;8.25;46.97;94402.28;4994920;28;20295;-73
2021/04/28 05:37:49;;;;;;;12.27;7.83;;;;;;;8.33;47.00;94397.09;4986019;28;20187;-70
2021/04/28 05:40:14;;;;;;;11.33;6.83;;;;;;;8.42;46.82;94405.72;4999058;28;20172;-73
2021/04/28 05:42:40;;;;;;;13.03;7.70;;;;;;;8.52;47.16;94401.97;4998518;28;20184;-72
2021/04/28 05:45:07;;;;;;;9.67;7.40;;;;;;;8.66;46.95;94402.31;4987094;28;20230;-73
2021/04/28 05:47:33;;;;;;;8.97;7.07;;;;;;;8.78;46.96;94409.56;4992673;28;20275;-72
2021/04/28 05:49:58;;;;;;;8.93;6.70;;;;;;;8.82;47.72;94409.22;4999012;28;20572;-73
2021/04/28 05:52:23;;;;;;;11.40;7.53;;;;;;;8.76;46.93;94408.91;4999869;28;20180;-74
2021/04/28 05:54:49;;;;;;;8.70;6.80;;;;;;;8.97;46.69;94410.97;4997954;28;20179;-73
2021/04/28 05:57:17;;;;;;;12.77;7.73;;;;;;;9.10;46.72;94400.13;5007983;28;20278;-73
2021/04/28 05:59:43;;;;;;;11.03;8.10;;;;;;;9.24;46.08;94407.16;5003541;28;20176;-73
2021/04/28 06:02:09;;;;;;;14.03;9.07;;;;;;;9.48;45.74;94403.69;4988831;28;20561;-73
2021/04/28 06:04:35;;;;;;;12.87;8.63;;;;;;;9.72;46.06;94397.59;4996066;28;20644;-73
2021/04/28 06:07:00;;;;;;;12.60;9.37;;;;;;;9.81;45.57;94404.34;4993162;28;20210;-70
2021/04/28 06:09:25;;;;;;;13.60;9.83;;;;;;;10.01;45.58;94403.91;5002840;28;20219;-73
2021/04/28 06:11:51;;;;;;;14.00;9.07;;;;;;;10.13;45.51;94408.50;4989478;28;20187;-73
2021/04/28 06:14:16;;;;;;;15.10;9.80;;;;;;;10.44;45.11;94405.91;5013381;28;20180;-74
2021/04/28 06:16:43;;;;;;;15.63;10.13;;;;;;;10.92;44.40;94409.03;4995791;28;20203;-74
2021/04/28 06:19:10;;;;;;;14.50;8.93;;;;;;;11.59;42.50;94401.16;5013585;28;20686;-74
2021/04/28 06:21:35;;;;;;;13.80;8.83;;;;;;;11.62;42.58;94408.59;5013186;28;20525;-74
2021/04/28 06:24:03;;;;;;;15.67;10.20;;;;;;;11.62;42.53;94402.59;5013361;28;20237;-75
2021/04/28 06:26:29;;;;;;;16.53;9.40;;;;;;;11.47;43.14;94402.59;5012904;28;20199;-73
2021/04/28 06:28:54;;;;;;;17.10;9.67;;;;;;;11.52;43.13;94402.88;5013193;28;20201;-72
2021/04/28 06:31:20;;;;;;;12.87;9.57;;;;;;;12.18;42.39;94408.84;5013059;28;20258;-72
2021/04/28 06:33:47;;;;;;;11.83;8.80;;;;;;;14.23;38.36;94416.41;5013141;28;20226;-72
2021/04/28 06:36:12;;;;;;;12.17;8.10;;;;;;;16.27;34.44;94415.34;5012584;28;20793;-73
2021/04/28 06:38:38;;;;;;;11.63;8.20;;;;;;;18.24;30.68;94424.31;5013110;28;20266;-73
2021/04/28 06:41:04;;;;;;;10.98;8.57;;;;;;;19.47;28.48;94421.03;4995388;28;20180;-73
2021/04/28 06:43:29;;;;;;;12.10;8.98;;;;;;;20.36;26.96;94423.41;5013193;28;20179;-73
2021/04/28 06:45:54;;;;;;;12.93;10.63;;;;;;;20.30;24.95;94421.69;4994524;28;20221;-72
2021/04/28 06:48:20;;;;;;;12.07;9.60;;;;;;;20.84;24.98;94419.50;4995424;28;20183;-74
2021/04/28 06:50:45;;;;;;;14.25;10.65;;;;;;;21.29;23.85;94423.97;5012599;28;20661;-74
2021/04/28 06:53:10;;;;;;;11.88;9.68;;;;;;;21.29;24.48;94421.31;5012929;28;20179;-77
2021/04/28 06:55:36;;;;;;;14.18;10.80;;;;;;;20.53;24.23;94419.00;4978971;28;20318;-74
2021/04/28 06:58:01;;;;;;;11.93;9.77;;;;;;;21.00;23.69;94418.72;5012821;28;20168;-74
2021/04/28 07:00:28;;;;;;;12.55;9.88;;;;;;;20.33;25.39;94418.59;4995119;28;20191;-74
2021/04/28 07:02:57;;;;;;;10.23;6.72;;;;;;;19.75;26.07;94422.19;5012609;28;20258;-73
2021/04/28 07:05:23;;;;;;;11.00;7.57;;;;;;;18.91;26.80;94421.56;5012125;28;20265;-73
2021/04/28 07:07:48;;;;;;;10.10;7.45;;;;;;;18.61;27.58;94421.56;4995036;28;20635;-73
2021/04/28 07:10:15;;;;;;;7.78;6.97;;;;;;;18.55;27.77;94425.91;4995032;28;20253;-73
2021/04/28 07:12:40;;;;;;;8.40;7.10;;;;;;;17.61;29.86;94429.06;4994830;28;20245;-72
2021/04/28 07:15:06;;;;;;;12.18;7.60;;;;;;;17.12;30.28;94433.31;4994509;28;20175;-72
2021/04/28 07:17:37;;;;;;;10.25;8.07;;;;;;;17.60;29.45;94430.88;4994418;28;20175;-72
2021/04/28 07:20:04;;;;;;;9.77;8.23;;;;;;;16.93;30.88;94428.03;4994681;28;20186;-72
2021/04/28 07:22:30;;;;;;;8.65;7.40;;;;;;;16.68;30.99;94430.63;5012529;28;20183;-72
2021/04/28 07:24:55;;;;;;;11.82;8.05;;;;;;;15.94;32.60;94430.41;5011783;28;20176;-75
2021/04/28 07:27:21;;;;;;;14.10;8.48;;;;;;;15.15;33.79;94434.78;4994830;28;20175;-75
2021/04/28 07:29:47;;;;;;;10.35;8.43;;;;;;;14.59;35.21;94437.00;4994418;28;20288;-75
2021/04/28 07:32:12;;;;;;;13.07;8.00;;;;;;;14.92;35.03;94434.38;4994708;28;20619;-75
2021/04/28 07:34:38;;;;;;;14.23;8.10;;;;;;;14.49;35.97;94432.16;4994039;28;20171;-74
2021/04/28 07:37:03;;;;;;;13.17;8.00;;;;;;;14.81;35.87;94432.38;4993302;28;20211;-75
2021/04/28 07:39:29;;;;;;;11.77;8.73;;;;;;;14.33;36.96;94433.28;4993280;28;20228;-76
2021/04/28 07:41:54;;;;;;;11.10;8.00;;;;;;;14.07;37.01;94430.59;4993797;28;20666;-75
2021/04/28 07:44:20;;;;;;;12.47;8.00;;;;;;;14.50;36.76;94428.53;5011327;28;20183;-75
2021/04/28 07:46:46;;;;;;;13.70;9.13;;;;;;;14.38;36.84;94422.22;5011421;28;20207;-74
2021/04/28 07:49:11;;;;;;;13.97;8.87;;;;;;;14.48;36.38;94427.09;5011040;28;20207;-75
2021/04/28 07:51:37;;;;;;;9.87;8.40;;;;;;;14.77;36.78;94426.75;5011240;28;20647;-75
2021/04/28 07:54:04;;;;;;;12.93;8.50;;;;;;;14.95;37.66;94426.97;5011032;28;20547;-75
2021/04/28 07:56:29;;;;;;;11.00;8.23;;;;;;;14.91;36.51;94425.72;5009548;28;20214;-74
2021/04/28 07:58:54;;;;;;;11.40;7.93;;;;;;;14.91;36.84;94430.97;5011610;28;20183;-74
2021/04/28 08:01:20;;;;;;;11.43;8.07;;;;;;;15.11;36.33;94427.56;4993509;28;20186;-74
2021/04/28 08:03:45;;;;;;;12.33;8.43;;;;;;;15.22;35.91;94422.50;4993309;28;20175;-74
2021/04/28 08:06:11;;;;;;;11.57;8.23;;;;;;;15.17;36.61;94432.75;4993434;28;20603;-79
2021/04/28 08:08:36;;;;;;;12.03;8.93;;;;;;;15.29;36.27;94435.59;4994123;28;20182;-75
2021/04/28 08:11:01;;;;;;;12.10;8.53;;;;;;;15.61;35.34;94431.31;5011211;28;20745;-74
2021/04/28 08:13:27;;;;;;;14.30;8.47;;;;;;;15.66;35.72;94430.72;4993191;28;20186;-72
2021/04/28 08:15:52;;;;;;;8.47;7.40;;;;;;;15.49;34.93;94420.66;5010874;28;20206;-75
2021/04/28 08:18:17;;;;;;;11.20;7.57;;;;;;;15.57;34.82;94432.72;4993256;28;20210;-75
2021/04/28 08:20:45;;;;;;;14.40;8.93;;;;;;;15.57;35.31;94423.03;4993518;28;20210;-74
2021/04/28 08:23:10;;;;;;;12.93;7.73;;;;;;;15.51;34.61;94430.91;4993074;28;20271;-74
2021/04/28 08:25:35;;;;;;;10.23;6.30;;;;;;;15.74;31.05;94427.88;4993032;28;20742;-75
2021/04/28 08:28:01;;;;;;;8.53;5.70;;;;;;;16.04;30.74;94420.28;5010757;28;20191;-75
2021/04/28 08:30:26;;;;;;;8.13;5.67;;;;;;;15.90;30.21;94422.16;5010888;28;20261;-75
2021/04/28 08:32:51;;;;;;;7.93;5.83;;;;;;;16.02;31.13;94424.94;4993029;28;20189;-75
2021/04/28 08:35:17;;;;;;;6.70;4.53;;;;;;;16.07;28.86;94423.28;5010512;28;20211;-74
2021/04/28 08:37:47;;;;;;;9.20;4.87;;;;;;;16.20;26.82;94421.63;5010515;28;20194;-73
2021/04/28 08:40:15;;;;;;;7.00;5.00;;;;;;;16.01;25.94;94426.75;5000236;28;20203;-73
2021/04/28 08:42:40;;;;;;;6.20;5.50;;;;;;;15.92;26.59;94420.16;4990129;28;20180;-73
2021/04/28 08:45:06;;;;;;;6.28;5.43;;;;;;;15.83;26.84;94418.78;4989092;28;20554;-71
2021/04/28 08:47:32;;;;;;;10.23;5.23;;;;;;;16.19;26.51;94426.06;4993083;28;20341;-74
2021/04/28 08:49:58;;;;;;;12.15;5.85;;;;;;;15.86;27.17;94420.97;4992920;28;20298;-74
2021/04/28 08:52:23;;;;;;;8.23;5.60;;;;;;;15.92;27.10;94412.28;4992546;28;20226;-75
2021/04/28 08:54:48;;;;;;;8.23;5.37;;;;;;;15.52;27.76;94416.81;4992487;28;20245;-75
2021/04/28 08:57:14;;;;;;;8.97;5.57;;;;;;;15.93;28.36;94411.28;5009178;28;20234;-72
2021/04/28 08:59:40;;;;;;;6.30;5.33;;;;;;;15.95;27.62;94411.06;4987348;28;20186;-75
2021/04/28 09:02:17;;;;;;;6.63;5.43;;;;;;;16.15;27.50;94415.19;4995856;28;20192;-72
2021/04/28 09:04:47;;;;;;;8.30;5.60;;;;;;;16.23;28.90;94411.53;4982441;28;20176;-75
2021/04/28 09:07:13;;;;;;;7.50;5.50;;;;;;;16.33;27.09;94411.06;4982265;28;20251;-74
2021/04/28 09:09:38;;;;;;;9.43;5.73;;;;;;;16.10;27.77;94415.03;4998713;28;20235;-73
2021/04/28 09:12:03;;;;;;;7.17;5.73;;;;;;;16.15;27.33;94409.16;4996190;28;20262;-74
2021/04/28 09:14:32;;;;;;;10.57;6.05;;;;;;;15.96;28.83;94413.47;5002181;28;20191;-73
2021/04/28 09:17:02;;;;;;;7.33;5.53;;;;;;;16.07;28.42;94410.19;4985786;28;20651;-72
2021/04/28 09:19:38;;;;;;;9.00;5.50;;;;;;;16.09;28.72;94417.84;5002940;28;20187;-73
2021/04/28 09:22:06;;;;;;;7.87;5.80;;;;;;;15.96;28.34;94408.22;4988572;28;20646;-76
2021/04/28 09:24:52;;;;;;;13.77;6.67;;;;;;;16.09;27.83;94412.63;5007606;28;20184;-76
2021/04/28 09:27:30;;;;;;;10.02;5.88;;;;;;;16.26;27.19;94416.38;5012715;28;20222;-76
2021/04/28 09:29:55;;;;;;;8.90;6.27;;;;;;;16.13;27.53;94414.59;5010677;28;20289;-77
2021/04/28 09:32:30;;;;;;;10.33;6.67;;;;;;;16.24;27.57;94414.94;5008064;28;20283;-76
2021/04/28 09:35:11;;;;;;;11.77;7.27;;;;;;;16.25;27.56;94411.31;4985847;28;20292;-75
2021/04/28 09:37:49;;;;;;;10.55;7.18;;;;;;;16.11;27.42;94407.97;4995483;28;20210;-76
2021/04/28 09:40:15;;;;;;;13.27;6.90;;;;;;;16.21;26.72;94404.91;5018782;28;20175;-76
2021/04/28 09:42:51;;;;;;;8.52;6.93;;;;;;;15.92;27.60;94412.28;4996409;28;20620;-76
2021/04/28 09:45:37;;;;;;;8.77;6.43;;;;;;;15.91;28.80;94397.59;5012816;28;20217;-77
2021/04/28 09:48:03;;;;;;;9.52;6.70;;;;;;;15.93;28.03;94390.34;5012860;28;20286;-77
2021/04/28 09:50:29;;;;;;;10.70;7.30;;;;;;;15.99;27.90;94394.75;4980486;28;20298;-76
2021/04/28 09:52:54;;;;;;;9.43;6.83;;;;;;;15.85;28.91;94406.28;4995380;28;20559;-77
2021/04/28 09:55:19;;;;;;;7.37;6.00;;;;;;;15.99;27.00;94396.53;4978880;28;20213;-73
2021/04/28 09:57:47;;;;;;;8.70;6.20;;;;;;;16.03;27.30;94393.31;4995146;28;20607;-73
2021/04/28 10:00:20;;;;;;;7.33;5.60;;;;;;;16.06;27.46;94397.31;4994842;28;20677;-72
2021/04/28 10:02:53;;;;;;;7.27;4.90;;;;;;;16.37;28.40;94389.50;5012009;28;20661;-73
2021/04/28 10:05:25;;;;;;;8.80;5.67;;;;;;;16.56;27.28;94397.44;5012592;28;20547;-74
2021/04/28 10:08:06;;;;;;;6.85;4.90;;;;;;;16.68;26.19;94408.81;5011976;28;20237;-73
2021/04/28 10:10:32;;;;;;;7.05;4.72;;;;;;;16.51;27.05;94399.88;4994840;28;20678;-73
2021/04/28 10:12:57;;;;;;;6.80;4.57;;;;;;;16.65;25.91;94401.41;4994338;28;20226;-74
2021/04/28 10:15:22;;;;;;;8.73;5.75;;;;;;;15.99;26.73;94397.38;5012171;28;20293;-73
2021/04/28 10:17:48;;;;;;;10.48;5.15;;;;;;;16.35;27.30;94395.97;5011830;28;20274;-73
2021/04/28 10:20:14;;;;;;;11.13;5.78;;;;;;;16.28;27.96;94397.81;5011491;28;20188;-73
2021/04/28 10:22:40;;;;;;;12.48;7.60;;;;;;;16.61;27.99;94395.78;5010655;28;20674;-73
2021/04/28 10:25:07;;;;;;;9.33;7.30;;;;;;;16.62;28.51;94397.41;4994214;28;20187;-73
2021/04/28 10:27:33;;;;;;;14.85;7.53;;;;;;;16.59;28.09;94389.13;5011721;28;20262;-73
2021/04/28 10:29:59;;;;;;;8.80;6.22;;;;;;;16.89;28.76;94395.41;5012674;28;20238;-72
2021/04/28 10:32:24;;;;;;;10.30;6.45;;;;;;;16.90;25.94;94402.25;5012624;28;20640;-74
2021/04/28 10:35:09;;;;;;;7.40;5.65;;;;;;;17.27;26.59;94395.25;5012257;28;20198;-74
2021/04/28 10:37:37;;;;;;;13.38;7.47;;;;;;;17.26;28.21;94388.41;5005815;28;20184;-75
2021/04/28 10:40:10;;;;;;;12.98;7.85;;;;;;;16.81;27.21;94400.13;4994310;28;20167;-73
2021/04/28 10:42:36;;;;;;;12.60;7.75;;;;;;;16.62;27.59;94397.41;5012858;28;20175;-74
2021/04/28 10:45:06;;;;;;;10.20;7.43;;;;;;;16.37;27.02;94391.31;5003387;28;20194;-74
2021/04/28 10:47:48;;;;;;;7.07;6.13;;;;;;;16.49;27.67;94386.19;4995234;28;20657;-75
2021/04/28 10:50:37;;;;;;;8.25;6.35;;;;;;;16.71;27.51;94390.09;5008927;28;20195;-74
2021/04/28 10:53:27;;;;;;;10.93;7.20;;;;;;;16.38;27.74;94380.63;5012387;28;20183;-74
2021/04/28 10:56:10;;;;;;;11.40;6.43;;;;;;;17.03;28.47;94385.59;5027143;28;20206;-75
2021/04/28 10:58:37;;;;;;;12.55;6.85;;;;;;;17.50;25.80;94383.34;5012345;28;20175;-74
2021/04/28 11:01:05;;;;;;;8.23;6.13;;;;;;;17.11;26.79;94380.06;5012428;28;20202;-74
2021/04/28 11:03:35;;;;;;;9.77;6.18;;;;;;;17.27;27.07;94378.72;5011960;28;20654;-72
2021/04/28 11:06:28;;;;;;;8.95;5.53;;;;;;;17.74;27.46;94379.84;5011867;28;20868;-74
2021/04/28 11:08:53;;;;;;;9.65;5.55;;;;;;;17.54;25.78;94377.41;5012202;28;20179;-73
2021/04/28 11:11:41;;;;;;;7.85;5.60;;;;;;;17.65;25.70;94370.63;5026785;28;20194;-72
2021/04/28 11:14:10;;;;;;;8.65;5.20;;;;;;;17.74;25.40;94377.22;5010090;28;20179;-73
2021/04/28 11:16:58;;;;;;;7.00;5.53;;;;;;;17.54;26.04;94379.25;5011717;28;20702;-74
2021/04/28 11:19:31;;;;;;;6.90;6.13;;;;;;;17.61;25.49;94379.97;4997661;28;20258;-73
2021/04/28 11:22:03;;;;;;;6.53;5.28;;;;;;;18.29;25.56;94376.34;4978172;28;20179;-73
2021/04/28 11:24:54;;;;;;;7.75;6.22;;;;;;;18.36;25.18;94377.03;5005807;28;20187;-74
2021/04/28 11:27:41;;;;;;;9.25;6.70;;;;;;;17.56;26.03;94366.69;5013919;28;20189;-73
2021/04/28 11:30:35;;;;;;;10.10;5.68;;;;;;;18.08;25.27;94375.00;5011202;28;20631;-73
2021/04/28 11:33:07;;;;;;;6.03;5.32;;;;;;;17.92;24.96;94376.41;5011147;28;20183;-74
2021/04/28 11:35:33;;;;;;;11.63;5.93;;;;;;;18.43;24.89;94384.81;5011381;28;20203;-74